Menu Close Menu
Station Historical Data
Daily Summary for August 11, 2017 Units:  English    Metric   Both
« Previous Day
Next Day »
Daily Weekly Monthly Yearly Custom
  High: Low: Average:
Temperature: 83.5 °F 70.8 °F 75.8 °F
Dew Point: 74.8 °F 69.0 °F 71.6 °F
Humidity: 95% 68% 87%
Wind Speed: 1.0mph 0.0mph 0mph
Wind Gust: 3.0mph - -
Wind- - SW
Pressure: 30.15 in 29.98 in -
Precipitation: 0.00 in    
Historical Graphs
 
 
Tabular Data for August 11, 2017
Time Temperature Dew Point Pressure Wind Wind Speed Wind Gust Humidity Rainfall Rate (Hourly) solar Conditions
00:00 72.4 °F 70.3 °F 30.15 in Calm     93% 0.00 in WeatherDisplay:10.37 W/m2 RA
00:05 72.3 °F 70.2 °F 30.15 in Calm     93% 0.00 in WeatherDisplay:10.37 W/m2 SCT
00:10 72.2 °F 70.1 °F 30.15 in Calm     93% 0.00 in WeatherDisplay:10.37 W/m2 SCT
00:15 72.2 °F 70.1 °F 30.14 in Calm     93% 0.00 in WeatherDisplay:10.37 W/m2 SCT
00:20 72.1 °F 70.0 °F 30.14 in Calm     93% 0.00 in WeatherDisplay:10.37 W/m2 CLR
00:25 72.1 °F 70.0 °F 30.14 in Calm     93% 0.00 in WeatherDisplay:10.37 W/m2 CLR
00:30 72.1 °F 70.0 °F 30.14 in Calm     93% 0.00 in WeatherDisplay:10.37 W/m2 CLR
00:35 72.1 °F 70.0 °F 30.13 in Calm     93% 0.00 in WeatherDisplay:10.37 W/m2 CLR
00:40 72.1 °F 70.0 °F 30.13 in Calm     93% 0.00 in WeatherDisplay:10.37 W/m2 CLR
00:45 72.1 °F 70.0 °F 30.13 in Calm     93% 0.00 in WeatherDisplay:10.37 W/m2 CLR
00:50 72.0 °F 69.9 °F 30.13 in Calm     93% 0.00 in WeatherDisplay:10.37 W/m2 CLR
00:55 72.0 °F 69.9 °F 30.14 in Calm     93% 0.00 in WeatherDisplay:10.37 W/m2 CLR
01:05 71.9 °F 69.8 °F 30.14 in Calm     93% 0.00 in WeatherDisplay:10.37 W/m2 CLR
01:10 71.9 °F 69.8 °F 30.14 in Calm     93% 0.00 in WeatherDisplay:10.37 W/m2 CLR
01:15 71.9 °F 70.1 °F 30.14 in Calm     94% 0.00 in WeatherDisplay:10.37 W/m2 CLR
01:20 71.9 °F 70.1 °F 30.13 in Calm     94% 0.00 in WeatherDisplay:10.37 W/m2 FEW
01:25 71.9 °F 70.1 °F 30.13 in Calm     94% 0.00 in WeatherDisplay:10.37 W/m2 FEW
01:30 72.0 °F 70.2 °F 30.13 in Calm     94% 0.00 in WeatherDisplay:10.37 W/m2 BKN
01:35 72.0 °F 70.2 °F 30.13 in Calm     94% 0.00 in WeatherDisplay:10.37 W/m2 BKN
01:40 72.0 °F 70.2 °F 30.12 in Calm     94% 0.00 in WeatherDisplay:10.37 W/m2 BKN
01:45 72.0 °F 70.2 °F 30.12 in Calm     94% 0.00 in WeatherDisplay:10.37 W/m2 BKN
01:50 72.0 °F 70.2 °F 30.11 in Calm     94% 0.00 in WeatherDisplay:10.37 W/m2 BKN
01:55 71.9 °F 70.1 °F 30.11 in Calm     94% 0.00 in WeatherDisplay:10.37 W/m2 BKN
02:00 71.8 °F 70.0 °F 30.11 in Calm     94% 0.00 in WeatherDisplay:10.37 W/m2 BKN
02:05 71.8 °F 70.0 °F 30.10 in Calm     94% 0.00 in WeatherDisplay:10.37 W/m2 BKN
02:10 71.7 °F 69.9 °F 30.10 in Calm   1.0 mph 94% 0.00 in WeatherDisplay:10.37 W/m2 BKN
02:15 71.6 °F 69.8 °F 30.10 in Calm     94% 0.00 in WeatherDisplay:10.37 W/m2 BKN
02:20 71.5 °F 69.7 °F 30.10 in Calm     94% 0.00 in WeatherDisplay:10.37 W/m2 OVC
02:25 71.5 °F 69.7 °F 30.10 in Calm     94% 0.00 in WeatherDisplay:10.37 W/m2 OVC
02:30 71.4 °F 69.6 °F 30.10 in Calm     94% 0.00 in WeatherDisplay:10.37 W/m2 OVC
02:35 71.2 °F 69.4 °F 30.10 in Calm     94% 0.00 in WeatherDisplay:10.37 W/m2 OVC
02:40 71.2 °F 69.4 °F 30.10 in Calm     94% 0.00 in WeatherDisplay:10.37 W/m2 OVC
02:45 71.1 °F 69.3 °F 30.10 in Calm     94% 0.00 in WeatherDisplay:10.37 W/m2 OVC
02:50 71.0 °F 69.2 °F 30.10 in Calm     94% 0.00 in WeatherDisplay:10.37 W/m2 SCT
02:55 70.9 °F 69.1 °F 30.09 in Calm     94% 0.00 in WeatherDisplay:10.37 W/m2 SCT
03:00 70.9 °F 69.1 °F 30.09 in Calm     94% 0.00 in WeatherDisplay:10.37 W/m2 SCT
03:05 70.9 °F 69.1 °F 30.09 in Calm     94% 0.00 in WeatherDisplay:10.37 W/m2 SCT
03:10 70.8 °F 69.0 °F 30.09 in Calm     94% 0.00 in WeatherDisplay:10.37 W/m2 SCT
03:15 70.8 °F 69.0 °F 30.09 in Calm     94% 0.00 in WeatherDisplay:10.37 W/m2 SCT
03:20 70.8 °F 69.0 °F 30.09 in Calm     94% 0.00 in WeatherDisplay:10.37 W/m2 FEW
03:25 70.8 °F 69.0 °F 30.09 in Calm     94% 0.00 in WeatherDisplay:10.37 W/m2 FEW
03:30 70.8 °F 69.0 °F 30.09 in Calm     94% 0.00 in WeatherDisplay:10.37 W/m2 FEW
03:35 70.8 °F 69.0 °F 30.10 in Calm     94% 0.00 in WeatherDisplay:10.37 W/m2 FEW
03:40 70.8 °F 69.0 °F 30.10 in Calm     94% 0.00 in WeatherDisplay:10.37 W/m2 FEW
03:45 70.8 °F 69.0 °F 30.10 in Calm     94% 0.00 in WeatherDisplay:10.37 W/m2 FEW
03:50 70.8 °F 69.0 °F 30.10 in Calm     94% 0.00 in WeatherDisplay:10.37 W/m2 BKN
03:55 70.9 °F 69.1 °F 30.10 in Calm     94% 0.00 in WeatherDisplay:10.37 W/m2 BKN
04:00 70.9 °F 69.1 °F 30.10 in Calm     94% 0.00 in WeatherDisplay:10.37 W/m2 BKN
04:05 71.0 °F 69.2 °F 30.10 in Calm     94% 0.00 in WeatherDisplay:10.37 W/m2 SCT
04:10 70.9 °F 69.1 °F 30.10 in Calm     94% 0.00 in WeatherDisplay:10.37 W/m2 SCT
04:15 71.0 °F 69.2 °F 30.10 in Calm     94% 0.00 in WeatherDisplay:10.37 W/m2 SCT
04:20 71.0 °F 69.2 °F 30.10 in Calm     94% 0.00 in WeatherDisplay:10.37 W/m2 CLR
04:25 71.0 °F 69.2 °F 30.10 in Calm     94% 0.00 in WeatherDisplay:10.37 W/m2 CLR
04:30 71.0 °F 69.2 °F 30.09 in Calm     94% 0.00 in WeatherDisplay:10.37 W/m2 CLR
04:35 71.1 °F 69.3 °F 30.09 in Calm     94% 0.00 in WeatherDisplay:10.37 W/m2 CLR
04:40 71.1 °F 69.3 °F 30.09 in Calm     94% 0.00 in WeatherDisplay:10.37 W/m2 CLR
04:45 71.0 °F 69.2 °F 30.09 in Calm     94% 0.00 in WeatherDisplay:10.37 W/m2 CLR
04:50 71.0 °F 69.2 °F 30.09 in Calm     94% 0.00 in WeatherDisplay:10.37 W/m2 CLR
04:55 71.1 °F 69.3 °F 30.09 in Calm     94% 0.00 in WeatherDisplay:10.37 W/m2 CLR
05:00 71.1 °F 69.3 °F 30.09 in Calm     94% 0.00 in WeatherDisplay:10.37 W/m2 CLR
05:05 71.1 °F 69.3 °F 30.09 in Calm     94% 0.00 in WeatherDisplay:10.37 W/m2 CLR
05:10 71.1 °F 69.3 °F 30.08 in Calm     94% 0.00 in WeatherDisplay:10.37 W/m2 CLR
05:15 71.1 °F 69.3 °F 30.08 in Calm     94% 0.00 in WeatherDisplay:10.37 W/m2 CLR
05:20 71.1 °F 69.3 °F 30.07 in Calm     94% 0.00 in WeatherDisplay:10.37 W/m2 CLR
05:25 71.0 °F 69.2 °F 30.08 in Calm     94% 0.00 in WeatherDisplay:10.37 W/m2 CLR
05:30 71.0 °F 69.2 °F 30.07 in Calm     94% 0.00 in WeatherDisplay:10.37 W/m2 CLR
05:35 71.0 °F 69.2 °F 30.08 in Calm     94% 0.00 in WeatherDisplay:10.37 W/m2 CLR
05:40 71.0 °F 69.2 °F 30.08 in Calm     94% 0.00 in WeatherDisplay:10.37 W/m2 CLR
05:45 71.0 °F 69.2 °F 30.08 in Calm     94% 0.00 in WeatherDisplay:10.37 W/m2 CLR
05:50 71.0 °F 69.2 °F 30.08 in Calm     94% 0.00 in WeatherDisplay:10.37 W/m2 CLR
05:55 71.0 °F 69.2 °F 30.08 in Calm     94% 0.00 in WeatherDisplay:10.37 W/m2 CLR
06:00 71.1 °F 69.3 °F 30.08 in Calm     94% 0.00 in WeatherDisplay:10.37 W/m2 CLR
06:05 71.1 °F 69.3 °F 30.08 in Calm     94% 0.00 in WeatherDisplay:10.37 W/m2 CLR
06:10 71.1 °F 69.3 °F 30.08 in Calm     94% 0.00 in WeatherDisplay:10.37 W/m2 CLR
06:15 71.1 °F 69.3 °F 30.08 in Calm     94% 0.00 in WeatherDisplay:10.37 W/m2 CLR
06:20 71.1 °F 69.3 °F 30.08 in Calm     94% 0.00 in WeatherDisplay:10.37 W/m2 CLR
06:25 71.1 °F 69.3 °F 30.09 in Calm     94% 0.00 in WeatherDisplay:10.37 W/m2 CLR
06:30 71.1 °F 69.3 °F 30.09 in Calm     94% 0.00 in WeatherDisplay:10.37 W/m2 CLR
06:35 71.1 °F 69.3 °F 30.08 in Calm     94% 0.00 in WeatherDisplay:10.37 W/m2 CLR
06:40 71.1 °F 69.3 °F 30.08 in Calm     94% 0.00 in WeatherDisplay:10.37 W/m2 CLR
06:45 71.0 °F 69.2 °F 30.08 in Calm     94% 0.00 in WeatherDisplay:10.37 W/m2 CLR
06:50 71.0 °F 69.2 °F 30.08 in Calm     94% 0.00 in WeatherDisplay:10.37 W/m2 CLR
06:55 71.0 °F 69.2 °F 30.09 in Calm     94% 0.00 in WeatherDisplay:10.37 W/m2 CLR
07:00 71.0 °F 69.2 °F 30.09 in Calm     94% 0.00 in WeatherDisplay:10.37 W/m2 CLR
07:05 71.0 °F 69.2 °F 30.09 in Calm     94% 0.00 in WeatherDisplay:10.37 W/m2 SCT
07:10 71.0 °F 69.2 °F 30.10 in Calm     94% 0.00 in WeatherDisplay:10.37 W/m2 SCT
07:15 71.1 °F 69.3 °F 30.10 in Calm     94% 0.00 in WeatherDisplay:10.37 W/m2 SCT
07:20 71.1 °F 69.3 °F 30.11 in Calm     94% 0.00 in WeatherDisplay:10.37 W/m2 SCT
07:25 71.1 °F 69.3 °F 30.11 in Calm     94% 0.00 in WeatherDisplay:10.37 W/m2 SCT
07:35 71.1 °F 69.3 °F 30.11 in Calm     94% 0.00 in WeatherDisplay:10.37 W/m2 SCT
07:40 71.2 °F 69.4 °F 30.11 in Calm     94% 0.00 in WeatherDisplay:10.37 W/m2 SCT
07:45 71.2 °F 69.4 °F 30.10 in Calm     94% 0.00 in WeatherDisplay:10.37 W/m2 SCT
07:50 71.3 °F 69.5 °F 30.10 in Calm     94% 0.00 in WeatherDisplay:10.37 W/m2 SCT
07:55 71.4 °F 69.6 °F 30.10 in Calm     94% 0.00 in WeatherDisplay:10.37 W/m2 SCT
08:00 71.6 °F 69.8 °F 30.10 in Calm     94% 0.00 in WeatherDisplay:10.37 W/m2 SCT
08:05 71.6 °F 69.8 °F 30.10 in Calm     94% 0.00 in WeatherDisplay:10.37 W/m2 SCT
08:10 71.6 °F 69.8 °F 30.10 in Calm     94% 0.00 in WeatherDisplay:10.37 W/m2 SCT
08:15 71.6 °F 69.8 °F 30.10 in Calm     94% 0.00 in WeatherDisplay:10.37 W/m2 SCT
08:20 71.8 °F 70.0 °F 30.11 in Calm     94% 0.00 in WeatherDisplay:10.37 W/m2 BKN
08:25 71.9 °F 70.1 °F 30.11 in Calm     94% 0.00 in WeatherDisplay:10.37 W/m2 BKN
08:30 72.0 °F 70.1 °F 30.10 in Calm     94% 0.00 in WeatherDisplay:10.37 W/m2 OVC
08:35 72.0 °F 70.2 °F 30.11 in Calm     94% 0.00 in WeatherDisplay:10.37 W/m2 OVC
08:40 72.2 °F 70.3 °F 30.10 in Calm     94% 0.00 in WeatherDisplay:10.37 W/m2 OVC
08:50 72.4 °F 70.9 °F 30.10 in Calm   1.0 mph 95% 0.00 in WeatherDisplay:10.37 W/m2 OVC
08:55 72.4 °F 70.6 °F 30.10 in Calm   1.0 mph 94% 0.00 in WeatherDisplay:10.37 W/m2 OVC
09:00 72.7 °F 71.2 °F 30.10 in Calm     95% 0.00 in WeatherDisplay:10.37 W/m2 OVC
09:05 72.7 °F 70.9 °F 30.10 in Calm   1.0 mph 94% 0.00 in WeatherDisplay:10.37 W/m2 OVC
09:10 72.6 °F 70.8 °F 30.10 in Calm   1.0 mph 94% 0.00 in WeatherDisplay:10.37 W/m2 OVC
09:15 72.6 °F 70.8 °F 30.10 in Calm     94% 0.00 in WeatherDisplay:10.37 W/m2 OVC
09:20 72.6 °F 70.8 °F 30.10 in Calm   1.0 mph 94% 0.00 in WeatherDisplay:10.37 W/m2 OVC
09:30 72.9 °F 71.1 °F 30.10 in Calm     94% 0.00 in WeatherDisplay:10.37 W/m2 OVC
09:35 72.9 °F 71.1 °F 30.10 in Calm     94% 0.00 in WeatherDisplay:10.37 W/m2 OVC
09:40 73.1 °F 71.3 °F 30.10 in Calm     94% 0.00 in WeatherDisplay:10.37 W/m2 OVC
09:45 73.2 °F 71.4 °F 30.11 in Calm     94% 0.00 in WeatherDisplay:10.37 W/m2 OVC
09:50 73.4 °F 71.6 °F 30.11 in Calm     94% 0.00 in WeatherDisplay:10.37 W/m2 OVC
09:55 73.5 °F 71.7 °F 30.11 in Calm     94% 0.00 in WeatherDisplay:10.37 W/m2 OVC
10:00 73.5 °F 71.7 °F 30.11 in Calm   1.0 mph 94% 0.00 in WeatherDisplay:10.37 W/m2 OVC
10:05 73.6 °F 71.8 °F 30.11 in Calm     94% 0.00 in WeatherDisplay:10.37 W/m2 OVC
10:10 73.7 °F 71.9 °F 30.11 in Calm     94% 0.00 in WeatherDisplay:10.37 W/m2 OVC
10:15 73.8 °F 72.0 °F 30.11 in Calm     94% 0.00 in WeatherDisplay:10.37 W/m2 OVC
10:20 73.9 °F 72.1 °F 30.12 in Calm     94% 0.00 in WeatherDisplay:10.37 W/m2 OVC
10:25 73.9 °F 72.1 °F 30.12 in Calm     94% 0.00 in WeatherDisplay:10.37 W/m2 OVC
10:30 74.2 °F 72.3 °F 30.12 in Calm     94% 0.00 in WeatherDisplay:10.37 W/m2 OVC
10:35 74.3 °F 72.5 °F 30.12 in Calm     94% 0.00 in WeatherDisplay:10.37 W/m2 OVC
10:40 74.3 °F 72.5 °F 30.12 in Calm     94% 0.00 in WeatherDisplay:10.37 W/m2 OVC
10:45 74.5 °F 72.7 °F 30.12 in Calm     94% 0.00 in WeatherDisplay:10.37 W/m2 OVC
10:50 74.6 °F 72.4 °F 30.11 in Calm     93% 0.00 in WeatherDisplay:10.37 W/m2 OVC
10:55 74.6 °F 72.4 °F 30.11 in Calm     93% 0.00 in WeatherDisplay:10.37 W/m2 OVC
11:00 74.9 °F 72.4 °F 30.11 in Calm   1.0 mph 92% 0.00 in WeatherDisplay:10.37 W/m2 OVC
11:05 75.3 °F 72.5 °F 30.11 in Calm     91% 0.00 in WeatherDisplay:10.37 W/m2 OVC
11:10 75.7 °F 72.9 °F 30.11 in Calm     91% 0.00 in WeatherDisplay:10.37 W/m2 OVC
11:15 75.9 °F 72.1 °F 30.11 in Calm   1.0 mph 88% 0.00 in WeatherDisplay:10.37 W/m2 OVC
11:20 76.2 °F 72.4 °F 30.10 in Calm     88% 0.00 in WeatherDisplay:10.37 W/m2 BKN
11:25 76.5 °F 72.7 °F 30.10 in Calm   1.0 mph 88% 0.00 in WeatherDisplay:10.37 W/m2 BKN
11:30 76.7 °F 72.9 °F 30.10 in Calm     88% 0.00 in WeatherDisplay:10.37 W/m2 BKN
11:35 77.2 °F 73.4 °F 30.11 in Calm     88% 0.00 in WeatherDisplay:10.37 W/m2 BKN
11:40 77.6 °F 72.7 °F 30.11 in Calm   1.0 mph 85% 0.00 in WeatherDisplay:10.37 W/m2 BKN
11:45 77.9 °F 72.7 °F 30.10 in Calm     84% 0.00 in WeatherDisplay:10.37 W/m2 BKN
11:50 78.1 °F 72.5 °F 30.10 in Calm   1.0 mph 83% 0.00 in WeatherDisplay:10.37 W/m2 OVC
11:55 78.2 °F 72.6 °F 30.11 in Calm     83% 0.00 in WeatherDisplay:10.37 W/m2 OVC
12:00 78.4 °F 73.5 °F 30.10 in Calm   1.0 mph 85% 0.00 in WeatherDisplay:10.37 W/m2 OVC
12:05 78.7 °F 73.1 °F 30.10 in Calm   1.0 mph 83% 0.00 in WeatherDisplay:10.37 W/m2 OVC
12:10 79.1 °F 73.1 °F 30.11 in Calm     82% 0.00 in WeatherDisplay:10.37 W/m2 OVC
12:15 79.5 °F 74.2 °F 30.10 in Calm     84% 0.00 in WeatherDisplay:10.37 W/m2 OVC
12:20 79.5 °F 72.4 °F 30.10 in Calm     79% 0.00 in WeatherDisplay:10.37 W/m2 OVC
12:25 79.5 °F 73.2 °F 30.10 in Calm     81% 0.00 in WeatherDisplay:10.37 W/m2 OVC
12:30 79.2 °F 72.9 °F 30.10 in Calm     81% 0.00 in WeatherDisplay:10.37 W/m2 OVC
12:35 79.1 °F 72.8 °F 30.10 in Calm     81% 0.00 in WeatherDisplay:10.37 W/m2 OVC
12:40 79.2 °F 72.9 °F 30.10 in Calm     81% 0.00 in WeatherDisplay:10.37 W/m2 OVC
12:45 79.3 °F 72.6 °F 30.10 in Calm     80% 0.00 in WeatherDisplay:10.37 W/m2 OVC
12:50 79.6 °F 73.6 °F 30.10 in Calm     82% 0.00 in WeatherDisplay:10.37 W/m2 OVC
12:55 79.9 °F 72.8 °F 30.09 in Calm     79% 0.00 in WeatherDisplay:10.37 W/m2 OVC
13:00 80.2 °F 72.7 °F 30.09 in Calm     78% 0.00 in WeatherDisplay:10.37 W/m2 OVC
13:05 80.5 °F 73.4 °F 30.09 in Calm     79% 0.00 in WeatherDisplay:10.37 W/m2 OVC
13:10 81.0 °F 73.5 °F 30.09 in Calm   2.0 mph 78% 0.00 in WeatherDisplay:10.37 W/m2 OVC
13:20 82.1 °F 73.4 °F 30.08 in Calm   1.0 mph 75% 0.00 in WeatherDisplay:10.37 W/m2 OVC
13:25 82.1 °F 73.8 °F 30.07 in Calm   1.0 mph 76% 0.00 in WeatherDisplay:10.37 W/m2 OVC
13:30 82.1 °F 73.8 °F 30.07 in Calm   1.0 mph 76% 0.00 in WeatherDisplay:10.37 W/m2 OVC
13:35 82.1 °F 73.4 °F 30.07 in Calm   1.0 mph 75% 0.00 in WeatherDisplay:10.37 W/m2 OVC
13:40 81.9 °F 72.4 °F 30.07 in Calm   1.0 mph 73% 0.00 in WeatherDisplay:10.37 W/m2 OVC
13:45 82.1 °F 74.2 °F 30.07 in Calm   1.0 mph 77% 0.00 in WeatherDisplay:10.37 W/m2 OVC
13:50 83.0 °F 74.6 °F 30.06 in Calm   1.0 mph 76% 0.00 in WeatherDisplay:10.37 W/m2 OVC
13:55 83.2 °F 72.8 °F 30.06 in Calm   2.0 mph 71% 0.00 in WeatherDisplay:10.37 W/m2 OVC
14:00 83.4 °F 73.4 °F 30.06 in Calm   2.0 mph 72% 0.00 in WeatherDisplay:10.37 W/m2 OVC
14:10 83.4 °F 73.4 °F 30.05 in Calm   3.0 mph 72% 0.00 in WeatherDisplay:10.37 W/m2 OVC
14:15 83.5 °F 73.1 °F 30.05 in Calm   2.0 mph 71% 0.00 in WeatherDisplay:10.37 W/m2 OVC
14:20 83.4 °F 74.2 °F 30.05 in Calm   1.0 mph 74% 0.00 in WeatherDisplay:10.37 W/m2 BKN
14:25 83.4 °F 73.4 °F 30.05 in SW 1.0 mph 1.0 mph 72% 0.00 in WeatherDisplay:10.37 W/m2 BKN
14:30 83.3 °F 73.7 °F 30.04 in Calm   1.0 mph 73% 0.00 in WeatherDisplay:10.37 W/m2 BKN
14:35 83.5 °F 72.7 °F 30.04 in Calm   3.0 mph 70% 0.00 in WeatherDisplay:10.37 W/m2 BKN
14:40 83.5 °F 71.8 °F 30.04 in SW 1.0 mph 2.0 mph 68% 0.00 in WeatherDisplay:10.37 W/m2 BKN
14:45 83.3 °F 73.7 °F 30.04 in Calm   2.0 mph 73% 0.00 in WeatherDisplay:10.37 W/m2 BKN
14:50 83.3 °F 72.5 °F 30.04 in Calm   3.0 mph 70% 0.00 in WeatherDisplay:10.37 W/m2 BKN
14:55 83.2 °F 73.2 °F 30.03 in Calm   1.0 mph 72% 0.00 in WeatherDisplay:10.37 W/m2 BKN
15:00 83.0 °F 73.4 °F 30.03 in Calm   1.0 mph 73% 0.00 in WeatherDisplay:10.37 W/m2 BKN
15:05 82.6 °F 71.4 °F 30.03 in Calm   1.0 mph 69% 0.00 in WeatherDisplay:10.37 W/m2 BKN
15:10 82.3 °F 72.4 °F 30.03 in Calm     72% 0.00 in WeatherDisplay:10.37 W/m2 BKN
15:15 82.0 °F 72.9 °F 30.03 in Calm     74% 0.00 in WeatherDisplay:10.37 W/m2 BKN
15:20 81.9 °F 72.4 °F 30.03 in Calm     73% 0.00 in WeatherDisplay:10.37 W/m2 BKN
15:25 81.7 °F 73.0 °F 30.02 in Calm   1.0 mph 75% 0.00 in WeatherDisplay:10.37 W/m2 BKN
15:30 81.6 °F 72.5 °F 30.02 in Calm     74% 0.00 in WeatherDisplay:10.37 W/m2 BKN
15:35 81.6 °F 73.7 °F 30.02 in Calm     77% 0.00 in WeatherDisplay:10.37 W/m2 BKN
15:40 81.6 °F 73.7 °F 30.02 in Calm     77% 0.00 in WeatherDisplay:10.37 W/m2 BKN
15:45 81.3 °F 72.2 °F 30.02 in Calm     74% 0.00 in WeatherDisplay:10.37 W/m2 BKN
15:50 81.2 °F 72.5 °F 30.02 in Calm     75% 0.00 in WeatherDisplay:10.37 W/m2 BKN
15:55 81.2 °F 73.7 °F 30.01 in Calm     78% 0.00 in WeatherDisplay:10.37 W/m2 BKN
16:00 81.1 °F 74.0 °F 30.01 in Calm     79% 0.00 in WeatherDisplay:10.37 W/m2 BKN
16:05 80.9 °F 73.8 °F 30.01 in Calm     79% 0.00 in WeatherDisplay:10.37 W/m2 BKN
16:10 80.9 °F 74.1 °F 30.01 in Calm     80% 0.00 in WeatherDisplay:10.37 W/m2 BKN
16:15 81.1 °F 74.7 °F 30.01 in Calm     81% 0.00 in WeatherDisplay:10.37 W/m2 BKN
16:20 81.1 °F 74.3 °F 30.01 in Calm   1.0 mph 80% 0.00 in WeatherDisplay:10.37 W/m2 BKN
16:25 81.1 °F 73.2 °F 30.01 in Calm     77% 0.00 in WeatherDisplay:10.37 W/m2 BKN
16:30 81.2 °F 73.7 °F 30.00 in Calm     78% 0.00 in WeatherDisplay:10.37 W/m2 BKN
16:40 81.4 °F 73.9 °F 30.00 in Calm     78% 0.00 in WeatherDisplay:10.37 W/m2 BKN
16:45 81.5 °F 74.7 °F 30.00 in Calm     80% 0.00 in WeatherDisplay:10.37 W/m2 BKN
16:50 81.3 °F 74.2 °F 30.00 in Calm     79% 0.00 in WeatherDisplay:10.37 W/m2 BKN
16:55 81.4 °F 74.6 °F 30.00 in Calm   1.0 mph 80% 0.00 in WeatherDisplay:10.37 W/m2 BKN
17:00 81.3 °F 74.2 °F 30.00 in Calm   1.0 mph 79% 0.00 in WeatherDisplay:10.37 W/m2 BKN
17:05 81.4 °F 73.9 °F 29.99 in Calm   1.0 mph 78% 0.00 in WeatherDisplay:10.37 W/m2 BKN
17:10 81.4 °F 74.3 °F 29.99 in Calm     79% 0.00 in WeatherDisplay:10.37 W/m2 BKN
17:15 81.4 °F 73.5 °F 30.00 in Calm   1.0 mph 77% 0.00 in WeatherDisplay:10.37 W/m2 BKN
17:20 81.4 °F 73.9 °F 30.00 in Calm     78% 0.00 in WeatherDisplay:10.37 W/m2 BKN
17:25 81.6 °F 74.8 °F 30.00 in Calm     80% 0.00 in WeatherDisplay:10.37 W/m2 BKN
17:30 81.6 °F 74.5 °F 30.00 in Calm     79% 0.00 in WeatherDisplay:10.37 W/m2 BKN
17:35 81.4 °F 74.3 °F 30.00 in Calm     79% 0.00 in WeatherDisplay:10.37 W/m2 BKN
17:40 81.3 °F 74.2 °F 30.00 in Calm   1.0 mph 79% 0.00 in WeatherDisplay:10.37 W/m2 BKN
17:45 81.4 °F 74.3 °F 30.00 in Calm   1.0 mph 79% 0.00 in WeatherDisplay:10.37 W/m2 BKN
17:50 81.4 °F 74.3 °F 29.99 in Calm     79% 0.00 in WeatherDisplay:10.37 W/m2 FEW
17:55 81.4 °F 74.3 °F 29.99 in Calm     79% 0.00 in WeatherDisplay:10.37 W/m2 FEW
18:00 81.3 °F 73.8 °F 29.99 in Calm     78% 0.00 in WeatherDisplay:10.37 W/m2 FEW
18:05 81.1 °F 73.6 °F 29.99 in Calm   1.0 mph 78% 0.00 in WeatherDisplay:10.37 W/m2 FEW
18:10 81.0 °F 73.5 °F 29.99 in Calm     78% 0.00 in WeatherDisplay:10.37 W/m2 FEW
18:15 81.0 °F 74.3 °F 29.99 in Calm     80% 0.00 in WeatherDisplay:10.37 W/m2 FEW
18:20 80.9 °F 73.4 °F 29.99 in Calm     78% 0.00 in WeatherDisplay:10.37 W/m2 OVC
18:25 80.8 °F 73.6 °F 29.99 in Calm     79% 0.00 in WeatherDisplay:10.37 W/m2 OVC
18:30 80.7 °F 74.0 °F 29.99 in Calm     80% 0.00 in WeatherDisplay:10.37 W/m2 OVC
18:35 80.6 °F 73.5 °F 29.99 in Calm     79% 0.00 in WeatherDisplay:10.37 W/m2 OVC
18:40 80.4 °F 73.7 °F 29.99 in Calm     80% 0.00 in WeatherDisplay:10.37 W/m2 OVC
18:45 80.3 °F 73.6 °F 29.99 in Calm     80% 0.00 in WeatherDisplay:10.37 W/m2 OVC
18:50 80.2 °F 73.8 °F 29.98 in Calm     81% 0.00 in WeatherDisplay:10.37 W/m2 OVC
18:55 80.2 °F 74.2 °F 29.98 in Calm     82% 0.00 in WeatherDisplay:10.37 W/m2 OVC
19:00 80.2 °F 73.5 °F 29.98 in Calm   1.0 mph 80% 0.00 in WeatherDisplay:10.37 W/m2 OVC
19:05 80.2 °F 73.8 °F 29.99 in Calm   1.0 mph 81% 0.00 in WeatherDisplay:10.37 W/m2 OVC
19:10 80.3 °F 73.5 °F 29.99 in Calm     80% 0.00 in WeatherDisplay:10.37 W/m2 OVC
19:15 80.3 °F 73.2 °F 29.98 in Calm     79% 0.00 in WeatherDisplay:10.37 W/m2 OVC
19:20 80.3 °F 73.6 °F 29.98 in Calm     80% 0.00 in WeatherDisplay:10.37 W/m2 BKN
19:25 80.2 °F 73.8 °F 29.98 in Calm     81% 0.00 in WeatherDisplay:10.37 W/m2 BKN
19:30 80.1 °F 74.1 °F 29.98 in Calm     82% 0.00 in WeatherDisplay:10.37 W/m2 BKN
19:35 79.8 °F 73.8 °F 29.98 in Calm     82% 0.00 in WeatherDisplay:10.37 W/m2 BKN
19:40 79.7 °F 74.1 °F 29.98 in Calm     83% 0.00 in WeatherDisplay:10.37 W/m2 BKN
19:45 79.5 °F 73.9 °F 29.98 in Calm     83% 0.00 in WeatherDisplay:10.37 W/m2 BKN
19:50 79.3 °F 73.7 °F 29.98 in Calm     83% 0.00 in WeatherDisplay:10.37 W/m2 BKN
19:55 79.0 °F 73.7 °F 29.98 in Calm     84% 0.00 in WeatherDisplay:10.37 W/m2 BKN
20:00 78.8 °F 73.2 °F 29.98 in Calm     83% 0.00 in WeatherDisplay:10.37 W/m2 BKN
20:10 78.5 °F 73.3 °F 29.98 in Calm     84% 0.00 in WeatherDisplay:10.37 W/m2 BKN
20:15 78.3 °F 73.1 °F 29.98 in Calm     84% 0.00 in WeatherDisplay:10.37 W/m2 BKN
20:20 78.1 °F 73.2 °F 29.98 in Calm     85% 0.00 in WeatherDisplay:10.37 W/m2 BKN
20:25 77.9 °F 73.0 °F 29.98 in Calm     85% 0.00 in WeatherDisplay:10.37 W/m2 BKN
20:30 77.7 °F 72.8 °F 29.99 in Calm     85% 0.00 in WeatherDisplay:10.37 W/m2 BKN
20:35 77.5 °F 73.0 °F 29.99 in Calm     86% 0.00 in WeatherDisplay:10.37 W/m2 BKN
20:40 77.3 °F 72.8 °F 29.99 in Calm     86% 0.00 in WeatherDisplay:10.37 W/m2 BKN
20:45 77.2 °F 72.7 °F 29.99 in Calm     86% 0.00 in WeatherDisplay:10.37 W/m2 BKN
20:50 77.0 °F 72.8 °F 29.99 in Calm     87% 0.00 in WeatherDisplay:10.37 W/m2 BKN
20:55 76.9 °F 72.7 °F 29.99 in Calm     87% 0.00 in WeatherDisplay:10.37 W/m2 BKN
21:00 76.7 °F 72.5 °F 29.99 in Calm     87% 0.00 in WeatherDisplay:10.37 W/m2 BKN
21:05 76.5 °F 72.7 °F 29.99 in Calm     88% 0.00 in WeatherDisplay:10.37 W/m2 BKN
21:10 76.4 °F 72.6 °F 29.99 in Calm     88% 0.00 in WeatherDisplay:10.37 W/m2 BKN
21:15 76.2 °F 72.4 °F 30.00 in Calm     88% 0.00 in WeatherDisplay:10.37 W/m2 BKN
21:20 76.2 °F 72.4 °F 30.00 in Calm     88% 0.00 in WeatherDisplay:10.37 W/m2 BKN
21:25 76.1 °F 72.3 °F 30.00 in Calm     88% 0.00 in WeatherDisplay:10.37 W/m2 BKN
21:30 76.0 °F 72.2 °F 30.00 in Calm     88% 0.00 in WeatherDisplay:10.37 W/m2 BKN
21:35 76.0 °F 72.2 °F 30.00 in Calm     88% 0.00 in WeatherDisplay:10.37 W/m2 BKN
21:40 75.9 °F 72.1 °F 30.00 in Calm     88% 0.00 in WeatherDisplay:10.37 W/m2 BKN
21:45 75.8 °F 72.3 °F 30.00 in Calm     89% 0.00 in WeatherDisplay:10.37 W/m2 BKN
21:50 75.7 °F 72.2 °F 30.00 in Calm     89% 0.00 in WeatherDisplay:10.37 W/m2 BKN
21:55 75.6 °F 72.1 °F 30.00 in Calm     89% 0.00 in WeatherDisplay:10.37 W/m2 BKN
22:00 75.5 °F 72.0 °F 30.00 in Calm     89% 0.00 in WeatherDisplay:10.37 W/m2 BKN
22:05 75.4 °F 71.9 °F 30.00 in Calm     89% 0.00 in WeatherDisplay:10.37 W/m2 BKN
22:10 75.3 °F 71.8 °F 30.01 in Calm     89% 0.00 in WeatherDisplay:10.37 W/m2 BKN
22:15 75.3 °F 72.1 °F 30.01 in Calm     90% 0.00 in WeatherDisplay:10.37 W/m2 BKN
22:20 75.1 °F 72.0 °F 30.00 in Calm     90% 0.00 in WeatherDisplay:10.37 W/m2 FEW
22:25 75.1 °F 72.0 °F 30.01 in Calm     90% 0.00 in WeatherDisplay:10.37 W/m2 FEW
22:30 75.0 °F 71.9 °F 30.00 in Calm     90% 0.00 in WeatherDisplay:10.37 W/m2 FEW
22:35 75.0 °F 71.8 °F 30.00 in Calm     90% 0.00 in WeatherDisplay:10.37 W/m2 FEW
22:40 74.9 °F 71.8 °F 30.00 in Calm     90% 0.00 in WeatherDisplay:10.37 W/m2 FEW
22:45 74.8 °F 71.7 °F 30.00 in Calm     90% 0.00 in WeatherDisplay:10.37 W/m2 FEW
22:50 74.7 °F 71.9 °F 30.00 in Calm     91% 0.00 in WeatherDisplay:10.37 W/m2 FEW
22:55 74.7 °F 71.9 °F 30.00 in Calm     91% 0.00 in WeatherDisplay:10.37 W/m2 FEW
23:00 74.6 °F 71.8 °F 30.00 in Calm     91% 0.00 in WeatherDisplay:10.37 W/m2 FEW
23:05 74.5 °F 71.7 °F 30.00 in Calm     91% 0.00 in WeatherDisplay:10.37 W/m2 FEW
23:10 74.4 °F 71.6 °F 30.00 in Calm     91% 0.00 in WeatherDisplay:10.37 W/m2 FEW
23:20 74.3 °F 71.5 °F 30.00 in Calm     91% 0.00 in WeatherDisplay:10.37 W/m2 FEW
23:25 74.3 °F 71.5 °F 30.00 in Calm     91% 0.00 in WeatherDisplay:10.37 W/m2 FEW
23:30 74.3 °F 71.8 °F 29.99 in Calm     92% 0.00 in WeatherDisplay:10.37 W/m2 FEW
23:35 74.3 °F 71.8 °F 29.99 in Calm     92% 0.00 in WeatherDisplay:10.37 W/m2 FEW
23:40 74.3 °F 71.8 °F 29.99 in Calm     92% 0.00 in WeatherDisplay:10.37 W/m2 FEW
23:45 74.3 °F 71.8 °F 29.99 in Calm     92% 0.00 in WeatherDisplay:10.37 W/m2 FEW
23:50 74.3 °F 71.9 °F 29.98 in Calm     92% 0.00 in WeatherDisplay:10.37 W/m2 BKN
23:55 74.4 °F 71.9 °F 29.98 in Calm     92% 0.00 in WeatherDisplay:10.37 W/m2 BKN
Piedmont Bend
Compliments of Weather Underground - 4 mb